createdAt,value
2022-07-27T00:01:32.665Z,1.00
2022-07-27T00:06:35.769Z,1.00
2022-07-27T00:11:38.533Z,2.00
2022-07-27T00:16:42.696Z,2.00
2022-07-27T00:21:46.331Z,2.00
2022-07-27T00:26:49.307Z,1.80
2022-07-27T00:31:53.628Z,2.00
2022-07-27T00:36:56.504Z,2.00
2022-07-27T00:41:59.253Z,2.00
2022-07-27T00:47:03.633Z,1.00
2022-07-27T00:52:06.805Z,1.40
2022-07-27T00:57:10.739Z,1.40
2022-07-27T01:02:19.325Z,1.20
2022-07-27T01:07:22.662Z,1.00
2022-07-27T01:12:27.784Z,3.00
2022-07-27T01:17:32.160Z,2.00
2022-07-27T01:22:36.340Z,2.00
2022-07-27T01:27:39.258Z,1.80
2022-07-27T01:32:42.035Z,1.40
2022-07-27T01:37:48.215Z,1.60
2022-07-27T01:42:51.143Z,2.20
2022-07-27T01:47:53.948Z,1.60
2022-07-27T01:52:58.061Z,1.00
2022-07-27T01:58:00.779Z,1.80
2022-07-27T02:03:04.968Z,3.40
2022-07-27T02:08:09.196Z,1.00
2022-07-27T02:13:22.269Z,3.00
2022-07-27T02:18:33.262Z,1.00
2022-07-27T02:23:41.377Z,1.00
2022-07-27T02:28:44.150Z,1.80
2022-07-27T02:33:47.076Z,1.00
2022-07-27T02:38:51.170Z,1.80
2022-07-27T02:43:54.001Z,1.20
2022-07-27T02:48:56.815Z,1.20
2022-07-27T02:54:00.895Z,2.00
2022-07-27T02:59:04.074Z,1.80
2022-07-27T03:04:06.956Z,3.00
2022-07-27T03:09:11.327Z,1.60
2022-07-27T03:14:14.445Z,4.00
2022-07-27T03:19:18.137Z,2.20
2022-07-27T03:24:22.276Z,2.80
2022-07-27T03:29:25.058Z,2.00
2022-07-27T03:34:32.288Z,3.60
2022-07-27T03:39:36.453Z,3.00
2022-07-27T03:44:39.330Z,2.00
2022-07-27T03:49:42.262Z,2.00
2022-07-27T03:54:46.502Z,2.20
2022-07-27T03:59:49.473Z,1.00
2022-07-27T04:04:52.245Z,2.00
2022-07-27T04:09:56.369Z,2.00
2022-07-27T04:14:59.836Z,2.00
2022-07-27T04:20:02.667Z,2.00
2022-07-27T04:25:07.855Z,2.40
2022-07-27T04:30:11.384Z,2.20
2022-07-27T04:35:14.111Z,2.00
2022-07-27T04:40:18.167Z,2.00
2022-07-27T04:45:21.277Z,2.00
2022-07-27T04:50:24.287Z,1.80
2022-07-27T04:55:28.505Z,1.60
2022-07-27T05:00:31.254Z,1.80
2022-07-27T05:05:34.061Z,1.00
2022-07-27T05:10:38.160Z,2.00
2022-07-27T05:15:55.546Z,2.00
2022-07-27T05:20:58.736Z,1.20
2022-07-27T05:26:03.143Z,1.00
2022-07-27T05:31:05.884Z,1.80
2022-07-27T05:36:08.825Z,1.00
2022-07-27T05:41:12.955Z,1.00
2022-07-27T05:46:15.905Z,1.00
2022-07-27T05:51:18.749Z,1.00
2022-07-27T05:56:22.877Z,1.20
2022-07-27T06:01:25.747Z,1.60
2022-07-27T06:06:46.296Z,1.00
2022-07-27T06:11:50.714Z,1.00
2022-07-27T06:16:53.739Z,1.00
2022-07-27T06:21:56.960Z,1.00
2022-07-27T06:27:01.092Z,1.00
2022-07-27T06:32:03.971Z,1.00
2022-07-27T06:37:07.910Z,1.00
2022-07-27T06:42:13.921Z,0.00
2022-07-27T06:47:17.151Z,1.60
2022-07-27T06:52:20.153Z,1.00
2022-07-27T06:57:24.584Z,0.60
2022-07-27T07:02:27.576Z,1.00
2022-07-27T07:07:30.365Z,2.20
2022-07-27T07:12:34.548Z,1.00
2022-07-27T07:17:37.874Z,1.00
2022-07-27T07:22:40.882Z,1.00
2022-07-27T07:27:45.104Z,0.00
2022-07-27T07:32:47.963Z,1.00
2022-07-27T07:37:50.910Z,1.00
2022-07-27T07:42:56.556Z,1.20
2022-07-27T07:47:59.511Z,1.00
2022-07-27T07:53:02.221Z,0.80
2022-07-27T07:58:06.464Z,1.40
2022-07-27T08:03:09.379Z,1.00
2022-07-27T08:08:12.167Z,0.60
2022-07-27T08:13:21.605Z,1.00
2022-07-27T08:18:25.003Z,0.20
2022-07-27T08:23:27.895Z,0.00
2022-07-27T08:28:35.679Z,0.00
2022-07-27T08:33:41.055Z,1.00
2022-07-27T08:38:43.850Z,1.00
2022-07-27T08:43:47.970Z,0.80
2022-07-27T08:48:50.809Z,1.00
2022-07-27T08:53:54.250Z,0.00
2022-07-27T08:58:58.661Z,1.00
2022-07-27T09:04:01.562Z,1.00
2022-07-27T09:09:04.495Z,1.00
2022-07-27T09:14:09.517Z,0.80
2022-07-27T09:19:13.170Z,0.40
2022-07-27T09:24:44.379Z,1.00
2022-07-27T09:29:41.144Z,0.40
2022-07-27T09:34:44.182Z,1.40
2022-07-27T09:39:46.954Z,1.00
2022-07-27T09:44:53.843Z,1.00
2022-07-27T09:49:58.761Z,1.00
2022-07-27T09:55:03.384Z,1.40
2022-07-27T10:00:14.754Z,0.20
2022-07-27T10:05:21.253Z,0.00
2022-07-27T10:10:24.513Z,1.00
2022-07-27T10:15:28.645Z,0.00
2022-07-27T10:20:31.769Z,1.00
2022-07-27T10:25:38.270Z,0.80
2022-07-27T10:30:42.736Z,0.00
2022-07-27T10:35:45.567Z,0.20
2022-07-27T10:40:49.313Z,0.40
2022-07-27T10:46:01.793Z,0.80
2022-07-27T10:51:06.847Z,1.00
2022-07-27T10:56:10.087Z,0.00
2022-07-27T11:01:16.012Z,0.00
2022-07-27T11:06:36.309Z,1.00
2022-07-27T11:11:50.969Z,0.00
2022-07-27T11:16:57.518Z,0.00
2022-07-27T11:22:04.731Z,0.00
2022-07-27T11:27:17.095Z,0.00
2022-07-27T11:32:21.950Z,0.00
2022-07-27T11:37:25.177Z,0.00
2022-07-27T11:42:37.879Z,0.00
2022-07-27T11:47:42.217Z,0.00
2022-07-27T11:52:45.021Z,0.60
2022-07-27T11:57:47.755Z,0.00
2022-07-27T12:02:52.299Z,0.00
2022-07-27T12:07:55.134Z,1.00
2022-07-27T12:12:57.996Z,0.00
2022-07-27T12:18:02.281Z,0.00
2022-07-27T12:23:06.466Z,0.00
2022-07-27T12:28:11.019Z,0.20
2022-07-27T12:33:27.682Z,0.60
2022-07-27T12:38:37.884Z,0.00
2022-07-27T12:43:40.968Z,0.00
2022-07-27T12:48:45.124Z,0.00
2022-07-27T12:53:48.021Z,1.00
2022-07-27T12:59:00.790Z,0.20
2022-07-27T13:04:04.953Z,0.00
2022-07-27T13:09:07.708Z,0.60
2022-07-27T13:14:10.475Z,0.00
2022-07-27T13:19:15.718Z,0.40
2022-07-27T13:24:18.855Z,0.00
2022-07-27T13:29:21.700Z,0.00
2022-07-27T13:34:25.867Z,0.00
2022-07-27T13:39:29.775Z,0.40
2022-07-27T13:45:01.011Z,0.00
2022-07-27T13:50:01.335Z,1.80
2022-07-27T13:55:04.210Z,1.00
2022-07-27T14:00:12.086Z,0.00
2022-07-27T14:05:20.254Z,0.40
2022-07-27T14:10:41.741Z,0.00
2022-07-27T14:15:53.518Z,0.20
2022-07-27T14:20:59.879Z,0.80
2022-07-27T14:26:03.102Z,0.00
2022-07-27T14:31:07.068Z,0.00
2022-07-27T14:36:11.859Z,0.60
2022-07-27T14:41:14.620Z,0.80
2022-07-27T14:46:17.520Z,0.00
2022-07-27T14:51:21.706Z,0.00
2022-07-27T14:56:25.559Z,0.00
2022-07-27T15:01:28.409Z,0.00
2022-07-27T15:06:38.488Z,1.00
2022-07-27T15:11:41.723Z,0.00
2022-07-27T15:16:46.141Z,0.00
2022-07-27T15:21:50.356Z,0.00
2022-07-27T15:26:53.084Z,0.00
2022-07-27T15:31:55.914Z,0.00
2022-07-27T15:37:00.138Z,0.60
2022-07-27T15:42:02.950Z,0.60
2022-07-27T15:47:06.305Z,0.00
2022-07-27T15:52:10.565Z,0.00
2022-07-27T15:57:13.507Z,0.00
2022-07-27T16:02:16.276Z,0.00
2022-07-27T16:07:28.753Z,0.00
2022-07-27T16:12:43.548Z,0.00
2022-07-27T16:17:46.596Z,0.00
2022-07-27T16:22:50.746Z,0.00
2022-07-27T16:27:53.578Z,0.00
2022-07-27T16:32:57.478Z,0.00
2022-07-27T16:38:01.647Z,0.00
2022-07-27T16:43:04.496Z,0.00
2022-07-27T16:48:07.716Z,0.00
2022-07-27T16:53:11.852Z,0.00
2022-07-27T16:58:14.687Z,0.00
2022-07-27T17:03:17.423Z,0.00
2022-07-27T17:08:21.575Z,0.00
2022-07-27T17:13:34.327Z,0.00
2022-07-27T17:18:40.117Z,0.00
2022-07-27T17:23:45.003Z,0.60
2022-07-27T17:28:47.728Z,0.40
2022-07-27T17:33:50.771Z,0.00
2022-07-27T17:38:55.074Z,0.00
2022-07-27T17:43:57.926Z,0.00
2022-07-27T17:49:00.911Z,0.00
2022-07-27T17:54:05.294Z,0.00
2022-07-27T17:59:34.695Z,0.00
2022-07-27T18:04:33.286Z,0.00
2022-07-27T18:09:39.840Z,0.00
2022-07-27T18:15:03.547Z,0.00
2022-07-27T18:20:08.608Z,0.00
2022-07-27T18:25:12.993Z,0.00
2022-07-27T18:30:15.920Z,0.00
2022-07-27T18:35:18.891Z,0.00
2022-07-27T18:40:23.231Z,0.00
2022-07-27T18:45:34.443Z,0.00
2022-07-27T18:50:39.594Z,2.00
2022-07-27T18:55:44.812Z,3.00
2022-07-27T19:00:47.600Z,3.40
2022-07-27T19:05:50.873Z,2.60
2022-07-27T19:10:56.955Z,2.00
2022-07-27T19:16:00.836Z,4.20
2022-07-27T19:21:03.661Z,2.40
2022-07-27T19:26:08.916Z,3.00
2022-07-27T19:31:22.699Z,2.00
2022-07-27T19:36:26.514Z,3.60
2022-07-27T19:41:30.664Z,3.60
2022-07-27T19:46:33.453Z,2.80
2022-07-27T19:51:36.289Z,2.00
2022-07-27T19:56:40.437Z,2.80
2022-07-27T20:01:43.282Z,2.60
2022-07-27T20:06:46.116Z,2.00
2022-07-27T20:11:50.266Z,2.80
2022-07-27T20:16:53.142Z,3.00
2022-07-27T20:21:57.187Z,4.00
2022-07-27T20:27:01.326Z,3.00
2022-07-27T20:32:04.723Z,3.20
2022-07-27T20:37:07.524Z,4.80
2022-07-27T20:42:11.752Z,4.20
2022-07-27T20:47:14.619Z,5.40
2022-07-27T20:52:17.469Z,5.00
2022-07-27T20:57:21.608Z,6.60
2022-07-27T21:02:24.452Z,6.00
2022-07-27T21:07:27.248Z,6.00
2022-07-27T21:12:31.577Z,8.40
2022-07-27T21:17:34.459Z,7.00
2022-07-27T21:22:37.238Z,10.20
2022-07-27T21:27:41.332Z,8.80
2022-07-27T21:32:45.076Z,8.80
2022-07-27T21:37:48.154Z,9.80
2022-07-27T21:42:52.487Z,7.00
2022-07-27T21:47:55.454Z,8.60
2022-07-27T21:52:59.951Z,9.00
2022-07-27T21:58:04.044Z,8.00
2022-07-27T22:03:06.846Z,8.00
2022-07-27T22:08:09.620Z,8.60
2022-07-27T22:13:13.704Z,6.00
2022-07-27T22:18:16.434Z,6.80
2022-07-27T22:23:19.214Z,5.00
2022-07-27T22:28:25.449Z,5.60
2022-07-27T22:33:29.164Z,4.00
2022-07-27T22:38:31.931Z,4.00
2022-07-27T22:43:36.163Z,6.20
2022-07-27T22:48:39.094Z,3.20
2022-07-27T22:53:41.978Z,4.00
2022-07-27T22:58:46.317Z,4.80
2022-07-27T23:03:49.279Z,3.60
2022-07-27T23:08:52.328Z,4.80
2022-07-27T23:13:56.430Z,5.40
2022-07-27T23:18:59.430Z,3.80
2022-07-27T23:24:03.101Z,3.40
2022-07-27T23:29:08.986Z,4.20
2022-07-27T23:34:12.099Z,4.60
2022-07-27T23:39:15.018Z,3.60
2022-07-27T23:44:19.134Z,5.00
2022-07-27T23:49:21.970Z,3.40
2022-07-27T23:54:24.760Z,4.00
2022-07-27T23:59:28.872Z,4.40
